Louisville International Standiford Field
KSDF : now visible

Airfield :











YOU CAN JOIN US ON...

 
LOGIN :

Register | Disclaimer

   EN    FR    IT 

 









Legend :    VFR   Marginal VFR   IFR   Intensive IFR   Very Intensive IFR
Visi :
Ceiling :
>= 8 km
>= 3000ft
5 to 8 km
1000 to 3000 ft
1500m to 5 km
500 to 1000 ft
800 to 1500m
200 to 500 ft
< 800m
< 200 ft
Symbols :   Thunderstorms  Fog  Heavy snow  Heavy precipitations  Wind > 20 kt






- Airport Elevation : 501 ft
- IATA code : SDF


KSDF - Louisville International Standiford Field

CURRENT METAR :
  • 270330Z 32013KT 10SM SCT027 OVC033 03/M03 A3008 RMK AO2 T00281028

EXPIRED METARs :
  • 270256Z 33014KT 10SM BKN027 OVC035 03/M02 A3007 RMK AO2 SLP184 T00331017 51024
  • 270228Z 32008KT 10SM SCT027 OVC035 04/M01 A3007 RMK AO2 T00391011
  • 270156Z 31011G17KT 10SM BKN027 OVC036 04/M01 A3006 RMK AO2 SLP181 T00441011
  • 270138Z 32009KT 10SM BKN027 OVC036 05/M01 A3005 RMK AO2 T00501006
  • 270126Z 31008KT 10SM SCT028 OVC036 05/M01 A3004 RMK AO2 T00501006
  • 270056Z 32010KT 10SM BKN027 OVC037 06/00 A3003 RMK AO2 SLP170 T00560000

TAF KSDF
Valid from the 27 at 00:00 until the 28 at 06:00 UTC


262334Z 2700/2806 30011KT P6SM BKN022
FM270600 35008KT P6SM SCT025 BKN040
FM271200 04010KT P6SM BKN018
FM271800 01011KT P6SM BKN015
PROB30 2719/2721 6SM -SN SCT008 BKN015
FM272100 36015KT 4SM -SN SCT009 BKN015
TEMPO 2722/2801 1 1/2SM -SN BKN009
FM280300 34012KT P6SM SCT020
KZID FIR / North America



MET'MAP, your aeronautical weather chart ! - Copyright ORBIFLY December 2007 - Disclaimer

ORBIFLY MET'MAP TEAM :

Programming & Development : Alexandra Zaïnal
Concept & original design : Baudouin d'Aumeries
Assistance for programming : Marc-Olivier Méhu
Technical & hardware support : Manuel Goepfert

Contact : metmap@orbifly.com




SOURCES & CREDITS :

   NOAA       Earth
Advisory